createdAt,value
2018-12-23T00:02:23.412Z,100748.83
2018-12-23T00:04:53.486Z,100765.87
2018-12-23T00:07:23.759Z,100766.22
2018-12-23T00:09:53.508Z,100778.89
2018-12-23T00:12:39.090Z,100783.22
2018-12-23T00:15:20.983Z,100795.44
2018-12-23T00:17:54.160Z,100794.56
2018-12-23T00:20:36.408Z,100802.87
2018-12-23T00:26:13.150Z,100813.83
2018-12-23T00:28:42.876Z,100825.21
2018-12-23T00:31:26.477Z,100828.32
2018-12-23T00:36:55.111Z,100830.42
2018-12-23T00:39:41.435Z,100839.20
2018-12-23T00:42:11.173Z,100848.78
2018-12-23T00:44:47.071Z,100857.14
2018-12-23T00:47:20.371Z,100861.55
2018-12-23T00:49:56.414Z,100864.65
2018-12-23T00:52:32.535Z,100866.34
2018-12-23T00:55:08.407Z,100869.36
2018-12-23T00:57:38.626Z,100875.11
2018-12-23T01:00:14.087Z,100882.48
2018-12-23T01:02:59.838Z,100890.38
2018-12-23T01:05:39.283Z,100893.82
2018-12-23T01:08:21.736Z,100896.93
2018-12-23T01:10:57.292Z,100901.20
2018-12-23T01:13:39.383Z,100915.23
2018-12-23T01:16:14.818Z,100923.03
2018-12-23T01:18:50.003Z,100934.02
2018-12-23T01:21:23.914Z,100933.24
2018-12-23T01:23:53.871Z,100929.70
2018-12-23T01:26:33.104Z,100932.28
2018-12-23T01:29:19.136Z,100938.85
2018-12-23T01:31:48.639Z,100947.17
2018-12-23T01:34:18.953Z,100953.70
2018-12-23T01:36:48.813Z,100953.67
2018-12-23T01:39:24.007Z,100956.78
2018-12-23T01:41:56.707Z,100958.06
2018-12-23T01:44:48.755Z,100965.48
2018-12-23T01:47:32.047Z,100964.87
2018-12-23T01:50:01.396Z,100973.97
2018-12-23T01:52:32.689Z,100976.55
2018-12-23T01:58:07.767Z,100981.09
2018-12-23T02:00:38.190Z,100989.87
2018-12-23T02:03:07.891Z,100990.36
2018-12-23T02:05:45.882Z,100993.13
2018-12-23T02:08:09.775Z,100995.25
2018-12-23T02:10:42.357Z,101000.14
2018-12-23T02:16:36.692Z,101013.81
2018-12-23T02:19:10.311Z,101016.33
2018-12-23T02:21:40.076Z,101020.28
2018-12-23T02:24:10.435Z,101019.27
2018-12-23T02:26:40.178Z,101010.11
2018-12-23T02:29:09.718Z,101018.33
2018-12-23T02:31:39.650Z,101016.44
2018-12-23T02:34:09.794Z,101024.61
2018-12-23T02:36:39.560Z,101022.70
2018-12-23T02:39:10.553Z,101010.26
2018-12-23T02:41:48.040Z,101023.80
2018-12-23T02:44:23.315Z,101031.02
2018-12-23T02:46:58.745Z,101035.22
2018-12-23T02:49:28.142Z,101040.95
2018-12-23T02:55:11.365Z,101052.66
2018-12-23T02:57:50.740Z,101053.97
2018-12-23T03:00:21.472Z,101052.38
2018-12-23T03:02:58.038Z,101052.38
2018-12-23T03:11:26.978Z,101055.73
2018-12-23T03:14:02.813Z,101062.84
2018-12-23T03:16:37.837Z,101061.81
2018-12-23T03:25:02.692Z,101050.06
2018-12-23T03:27:39.161Z,101050.52
2018-12-23T03:30:20.274Z,101053.27
2018-12-23T03:36:16.167Z,101064.73
2018-12-23T03:38:51.265Z,101061.81
2018-12-23T03:41:32.794Z,101070.36
2018-12-23T03:47:18.075Z,101072.15
2018-12-23T03:49:49.369Z,101073.63
2018-12-23T04:36:06.722Z,101048.95
2018-12-23T04:38:37.821Z,101056.10
2018-12-23T04:41:10.705Z,101059.33
2018-12-23T04:43:43.494Z,101043.30
2018-12-23T04:46:35.684Z,101040.73
2018-12-23T04:49:15.524Z,101047.72
2018-12-23T04:51:48.319Z,101047.72
2018-12-23T04:54:19.354Z,101045.16
2018-12-23T04:56:52.305Z,101037.67
2018-12-23T04:59:23.456Z,101037.16
2018-12-23T05:11:20.867Z,101030.09
2018-12-23T05:13:53.636Z,101046.25
2018-12-23T05:35:21.848Z,101043.47
2018-12-23T05:41:06.966Z,101057.80
2018-12-23T05:44:01.425Z,101063.61
2018-12-23T06:14:31.348Z,101084.47
2018-12-23T06:17:06.728Z,101073.96
2018-12-23T06:19:49.950Z,101090.77
2018-12-23T06:25:37.187Z,101091.63
2018-12-23T07:02:56.803Z,101074.53
2018-12-23T07:05:31.783Z,101077.21
2018-12-23T07:08:01.152Z,101071.53
2018-12-23T07:10:30.861Z,101073.75
2018-12-23T07:13:00.320Z,101067.65
2018-12-23T07:15:29.688Z,101063.73
2018-12-23T07:17:59.481Z,101059.39
2018-12-23T07:20:28.990Z,101058.53
2018-12-23T07:23:05.343Z,101059.00
2018-12-23T07:25:36.143Z,101058.98
2018-12-23T07:28:18.418Z,101061.19
2018-12-23T07:30:53.162Z,101059.03
2018-12-23T07:33:28.874Z,101059.91
2018-12-23T07:36:01.643Z,101059.95
2018-12-23T07:38:43.307Z,101056.46
2018-12-23T07:41:13.031Z,101056.03
2018-12-23T07:43:42.803Z,101053.87
2018-12-23T07:46:13.152Z,101051.72
2018-12-23T07:48:42.899Z,101059.62
2018-12-23T07:51:12.247Z,101056.58
2018-12-23T07:53:42.001Z,101061.42
2018-12-23T07:56:11.371Z,101062.75
2018-12-23T07:58:41.083Z,101053.58
2018-12-23T08:01:10.586Z,101052.27
2018-12-23T08:12:48.302Z,101048.84
2018-12-23T08:15:46.163Z,101047.03
2018-12-23T08:18:15.935Z,101046.14
2018-12-23T08:21:04.361Z,101039.13
2018-12-23T08:23:37.113Z,101046.99
2018-12-23T08:26:24.146Z,101053.11
2018-12-23T09:00:16.798Z,101060.48
2018-12-23T09:06:00.585Z,101061.34
2018-12-23T09:20:47.977Z,101051.62
2018-12-23T09:23:29.541Z,101050.28
2018-12-23T09:45:44.402Z,101045.51
2018-12-23T09:48:42.813Z,101031.04
2018-12-23T09:51:12.637Z,101022.26
2018-12-23T09:53:42.129Z,101012.61
2018-12-23T09:56:11.606Z,101020.95
2018-12-23T09:58:41.432Z,101016.06
2018-12-23T10:01:11.321Z,101015.64
2018-12-23T10:03:41.132Z,101018.21
2018-12-23T10:06:10.641Z,101013.88
2018-12-23T10:08:40.505Z,101006.80
2018-12-23T10:11:10.001Z,101012.03
2018-12-23T10:13:39.737Z,101003.69
2018-12-23T10:16:15.022Z,101003.24
2018-12-23T10:18:47.667Z,100998.81
2018-12-23T10:21:20.890Z,101001.96
2018-12-23T10:23:50.377Z,100999.39
2018-12-23T10:30:30.514Z,101002.84
2018-12-23T10:33:01.985Z,101001.48
2018-12-23T10:35:33.370Z,100993.00
2018-12-23T10:38:04.912Z,100986.73
2018-12-23T10:40:35.592Z,100980.64
2018-12-23T10:43:07.106Z,100980.97
2018-12-23T10:45:38.512Z,100979.72
2018-12-23T10:48:10.033Z,100971.31
2018-12-23T10:50:41.541Z,100981.86
2018-12-23T10:53:13.090Z,100977.01
2018-12-23T10:55:44.439Z,100974.98
2018-12-23T10:58:15.080Z,100973.16
2018-12-23T11:00:46.517Z,100963.05
2018-12-23T11:03:17.940Z,100964.81
2018-12-23T11:05:49.298Z,100959.97
2018-12-23T11:08:27.122Z,100959.50
2018-12-23T11:10:58.847Z,100954.72
2018-12-23T11:13:30.465Z,100949.88
2018-12-23T11:16:03.933Z,100947.93
2018-12-23T11:18:34.597Z,100943.14
2018-12-23T11:21:06.081Z,100941.63
2018-12-23T11:23:36.739Z,100942.50
2018-12-23T11:26:08.366Z,100936.41
2018-12-23T11:28:40.157Z,100930.34
2018-12-23T11:31:11.629Z,100928.05
2018-12-23T11:33:43.628Z,100928.48
2018-12-23T11:36:16.114Z,100916.83
2018-12-23T11:38:46.952Z,100922.11
2018-12-23T11:41:21.402Z,100921.31
2018-12-23T11:43:55.102Z,100922.63
2018-12-23T11:46:27.570Z,100923.50
2018-12-23T11:49:03.587Z,100915.59
2018-12-23T11:51:42.078Z,100915.64
2018-12-23T11:54:12.826Z,100913.58
2018-12-23T11:56:44.217Z,100912.33
2018-12-23T11:59:15.573Z,100904.95
2018-12-23T12:01:49.746Z,100902.20
2018-12-23T12:04:20.392Z,100899.05
2018-12-23T12:06:53.246Z,100899.59
2018-12-23T12:09:23.876Z,100896.39
2018-12-23T12:11:55.356Z,100895.89
2018-12-23T12:14:27.639Z,100896.75
2018-12-23T12:16:59.283Z,100894.55
2018-12-23T12:19:29.969Z,100898.36
2018-12-23T12:22:00.847Z,100892.59
2018-12-23T12:24:37.317Z,100887.34
2018-12-23T12:27:09.095Z,100884.86
2018-12-23T12:29:45.104Z,100881.85
2018-12-23T12:32:38.421Z,100879.16
2018-12-23T12:35:12.750Z,100880.02
2018-12-23T12:37:49.970Z,100872.22
2018-12-23T12:40:26.848Z,100869.86
2018-12-23T12:43:00.014Z,100875.89
2018-12-23T12:45:36.249Z,100875.97
2018-12-23T12:48:09.924Z,100873.28
2018-12-23T12:50:40.934Z,100866.47
2018-12-23T12:53:19.076Z,100862.11
2018-12-23T12:55:50.467Z,100863.48
2018-12-23T12:58:21.918Z,100861.71
2018-12-23T13:01:00.513Z,100853.34
2018-12-23T13:03:34.272Z,100852.02
2018-12-23T13:06:23.137Z,100844.38
2018-12-23T13:09:00.501Z,100846.50
2018-12-23T13:11:37.892Z,100853.45
2018-12-23T13:14:13.045Z,100858.73
2018-12-23T13:16:46.166Z,100860.65
2018-12-23T13:19:19.531Z,100858.06
2018-12-23T13:21:50.960Z,100857.17
2018-12-23T13:24:21.709Z,100851.97
2018-12-23T13:26:52.382Z,100848.09
2018-12-23T13:29:23.887Z,100841.99
2018-12-23T13:31:54.616Z,100841.13
2018-12-23T13:34:26.752Z,100831.91
2018-12-23T13:36:58.343Z,100830.57
2018-12-23T13:39:30.956Z,100823.13
2018-12-23T13:43:16.019Z,100818.74
2018-12-23T13:46:15.206Z,100818.29
2018-12-23T13:49:24.256Z,100806.94
2018-12-23T13:52:56.011Z,100803.48
2018-12-23T13:56:25.363Z,100800.41
2018-12-23T13:59:42.689Z,100803.05
2018-12-23T14:02:46.816Z,100795.58
2018-12-23T14:06:03.523Z,100794.31
2018-12-23T14:10:00.308Z,100789.06
2018-12-23T14:12:33.043Z,100783.39
2018-12-23T14:15:05.426Z,100789.05
2018-12-23T14:17:36.132Z,100794.31
2018-12-23T14:20:08.379Z,100788.16
2018-12-23T14:22:43.927Z,100781.14
2018-12-23T14:25:15.327Z,100784.27
2018-12-23T14:27:46.689Z,100773.34
2018-12-23T14:30:17.313Z,100782.56
2018-12-23T14:32:47.955Z,100772.92
2018-12-23T14:35:19.391Z,100771.16
2018-12-23T14:37:50.975Z,100768.92
2018-12-23T14:40:21.551Z,100782.56
2018-12-23T14:42:52.205Z,100762.80
2018-12-23T14:45:23.578Z,100757.11
2018-12-23T14:47:54.923Z,100768.97
2018-12-23T14:50:26.247Z,100766.81
2018-12-23T14:52:57.603Z,100757.55
2018-12-23T14:55:28.954Z,100758.43
2018-12-23T14:57:59.527Z,100750.62
2018-12-23T15:00:30.966Z,100753.31
2018-12-23T15:03:02.307Z,100753.75
2018-12-23T15:05:33.709Z,100755.89
2018-12-23T15:08:04.232Z,100744.53
2018-12-23T15:10:34.919Z,100746.30
2018-12-23T15:13:06.580Z,100745.45
2018-12-23T15:15:37.112Z,100738.87
2018-12-23T15:18:07.706Z,100733.17
2018-12-23T15:20:39.047Z,100735.36
2018-12-23T15:23:11.061Z,100742.34
2018-12-23T15:25:42.579Z,100738.83
2018-12-23T15:28:13.935Z,100732.64
2018-12-23T15:30:44.516Z,100733.89
2018-12-23T15:33:15.916Z,100727.38
2018-12-23T15:35:47.655Z,100730.88
2018-12-23T15:38:18.990Z,100718.59
2018-12-23T15:40:49.578Z,100722.11
2018-12-23T15:43:20.975Z,100722.98
2018-12-23T15:45:52.438Z,100722.05
2018-12-23T15:48:23.883Z,100722.36
2018-12-23T15:50:55.299Z,100714.95
2018-12-23T15:53:25.931Z,100711.34
2018-12-23T15:55:57.264Z,100715.29
2018-12-23T15:58:27.862Z,100716.16
2018-12-23T16:00:59.289Z,100716.17
2018-12-23T16:03:30.773Z,100701.35
2018-12-23T16:06:02.241Z,100707.06
2018-12-23T16:08:36.721Z,100706.64
2018-12-23T16:11:08.083Z,100698.17
2018-12-23T16:13:39.570Z,100695.20
2018-12-23T16:16:10.224Z,100699.16
2018-12-23T16:18:41.735Z,100693.58
2018-12-23T16:21:13.216Z,100696.64
2018-12-23T16:23:44.714Z,100701.48
2018-12-23T16:26:16.220Z,100695.00
2018-12-23T16:28:47.680Z,100691.89
2018-12-23T16:31:19.088Z,100691.93
2018-12-23T16:33:49.740Z,100680.53
2018-12-23T16:36:21.143Z,100677.02
2018-12-23T16:38:52.479Z,100685.80
2018-12-23T16:41:23.672Z,100677.56
2018-12-23T16:43:55.920Z,100673.17
2018-12-23T16:47:24.703Z,100667.48
2018-12-23T16:49:55.785Z,100666.64
2018-12-23T16:52:26.995Z,100660.06
2018-12-23T16:54:58.564Z,100662.25
2018-12-23T16:57:30.558Z,100659.58
2018-12-23T17:00:01.591Z,100660.06
2018-12-23T17:02:32.260Z,100652.12
2018-12-23T17:05:03.219Z,100660.02
2018-12-23T17:07:34.824Z,100653.04
2018-12-23T17:10:08.510Z,100644.75
2018-12-23T17:12:38.950Z,100653.97
2018-12-23T17:15:10.358Z,100649.58
2018-12-23T17:17:41.754Z,100650.46
2018-12-23T17:20:15.598Z,100649.58
2018-12-23T17:22:46.832Z,100648.31
2018-12-23T17:25:17.628Z,100633.84
2018-12-23T17:27:49.278Z,100637.80
2018-12-23T17:30:21.559Z,100629.91
2018-12-23T17:32:53.578Z,100626.87
2018-12-23T17:35:25.560Z,100627.27
2018-12-23T17:37:57.769Z,100625.99
2018-12-23T17:40:29.435Z,100615.47
2018-12-23T17:43:02.272Z,100608.47
2018-12-23T17:45:33.843Z,100614.16
2018-12-23T17:48:05.562Z,100608.06
2018-12-23T17:50:37.315Z,100599.30
2018-12-23T17:53:08.807Z,100589.22
2018-12-23T17:55:40.286Z,100584.00
2018-12-23T17:58:11.703Z,100588.78
2018-12-23T18:00:43.493Z,100583.57
2018-12-23T18:03:15.014Z,100584.41
2018-12-23T18:05:46.957Z,100576.55
2018-12-23T18:08:18.508Z,100580.90
2018-12-23T18:10:49.926Z,100580.50
2018-12-23T18:13:21.448Z,100577.88
2018-12-23T18:15:52.882Z,100575.68
2018-12-23T18:18:24.444Z,100585.76
2018-12-23T18:20:55.861Z,100580.50
2018-12-23T18:23:27.951Z,100586.55
2018-12-23T18:25:59.642Z,100587.03
2018-12-23T18:28:30.287Z,100574.77
2018-12-23T18:31:01.830Z,100572.61
2018-12-23T18:33:33.630Z,100567.79
2018-12-23T18:36:05.774Z,100566.88
2018-12-23T18:38:36.522Z,100564.72
2018-12-23T18:41:07.648Z,100566.03
2018-12-23T18:43:39.394Z,100553.33
2018-12-23T18:46:12.061Z,100561.22
2018-12-23T18:48:43.690Z,100555.97
2018-12-23T18:51:16.060Z,100547.23
2018-12-23T18:53:47.918Z,100541.98
2018-12-23T18:56:23.282Z,100539.35
2018-12-23T18:58:55.563Z,100541.10
2018-12-23T19:01:27.035Z,100540.67
2018-12-23T19:03:58.698Z,100538.08
2018-12-23T19:06:31.120Z,100437.65
2018-12-23T19:09:31.910Z,100539.36
2018-12-23T19:13:14.902Z,100542.86
2018-12-23T19:16:40.322Z,100540.67
2018-12-23T19:19:55.974Z,100533.22
2018-12-23T19:23:13.602Z,100547.68
2018-12-23T19:27:14.123Z,100543.30
2018-12-23T19:30:41.963Z,100540.67
2018-12-23T19:34:05.606Z,100534.97
2018-12-23T19:37:40.088Z,100526.65
2018-12-23T19:41:37.763Z,100527.53
2018-12-23T19:45:11.383Z,100517.00
2018-12-23T19:48:42.806Z,100513.98
2018-12-23T19:52:22.891Z,100510.92
2018-12-23T19:55:52.455Z,100519.24
2018-12-23T19:59:29.761Z,100506.54
2018-12-23T20:02:41.939Z,100491.66
2018-12-23T20:06:05.062Z,100491.25
2018-12-23T20:09:40.289Z,100484.64
2018-12-23T20:13:05.577Z,100484.59
2018-12-23T20:16:30.018Z,100481.09
2018-12-23T20:20:14.809Z,100478.50
2018-12-23T20:24:09.447Z,100468.03
2018-12-23T20:27:53.885Z,100472.85
2018-12-23T20:31:11.212Z,100472.42
2018-12-23T20:34:36.613Z,100476.81
2018-12-23T20:37:48.678Z,100481.67
2018-12-23T20:41:13.705Z,100480.39
2018-12-23T20:44:56.749Z,100479.52
2018-12-23T20:48:16.241Z,100476.06
2018-12-23T20:51:44.859Z,100474.74
2018-12-23T20:55:29.713Z,100473.88
2018-12-23T20:58:45.301Z,100465.98
2018-12-23T21:02:03.848Z,100461.61
2018-12-23T21:05:36.251Z,100472.55
2018-12-23T21:09:09.233Z,100469.48
2018-12-23T21:12:46.358Z,100467.30
2018-12-23T21:16:32.216Z,100462.45
2018-12-23T21:20:00.358Z,100456.31
2018-12-23T21:23:40.044Z,100447.55
2018-12-23T21:27:32.300Z,100444.49
2018-12-23T21:30:47.772Z,100443.22
2018-12-23T21:34:58.261Z,100439.23
2018-12-23T21:38:35.968Z,100423.52
2018-12-23T21:41:53.754Z,100433.06
2018-12-23T21:45:18.577Z,100426.97
2018-12-23T21:48:56.120Z,100415.98
2018-12-23T21:52:18.525Z,100413.36
2018-12-23T21:55:49.196Z,100405.52
2018-12-23T21:59:00.560Z,100412.95
2018-12-23T22:02:31.427Z,100423.86
2018-12-23T22:06:05.792Z,100416.41
2018-12-23T22:09:30.441Z,100415.98
2018-12-23T22:12:59.631Z,100397.19
2018-12-23T22:15:31.235Z,100390.64
2018-12-23T22:18:02.839Z,100392.77
2018-12-23T22:20:34.315Z,100394.50
2018-12-23T22:23:05.796Z,100385.76
2018-12-23T22:25:37.391Z,100384.00
2018-12-23T22:28:08.839Z,100381.33
2018-12-23T22:30:40.229Z,100383.52
2018-12-23T22:33:11.888Z,100383.08
2018-12-23T22:35:43.379Z,100376.94
2018-12-23T22:38:14.779Z,100373.86
2018-12-23T22:40:53.348Z,100364.98
2018-12-23T22:43:24.733Z,100368.55
2018-12-23T22:45:56.111Z,100373.80
2018-12-23T22:48:27.544Z,100370.38
2018-12-23T22:50:58.884Z,100373.44
2018-12-23T22:53:30.239Z,100383.08
2018-12-23T22:56:01.511Z,100377.61
2018-12-23T22:58:32.879Z,100386.37
2018-12-23T23:01:04.595Z,100387.39
2018-12-23T23:03:36.135Z,100384.25
2018-12-23T23:06:07.505Z,100376.44
2018-12-23T23:08:38.789Z,100371.68
2018-12-23T23:11:10.118Z,100370.41
2018-12-23T23:13:41.543Z,100377.75
2018-12-23T23:16:12.879Z,100374.69
2018-12-23T23:18:44.207Z,100370.73
2018-12-23T23:21:15.577Z,100364.67
2018-12-23T23:23:46.834Z,100354.67
2018-12-23T23:26:18.191Z,100359.04
2018-12-23T23:28:49.471Z,100364.73
2018-12-23T23:31:20.845Z,100358.61
2018-12-23T23:33:52.140Z,100360.84
2018-12-23T23:36:23.438Z,100359.09
2018-12-23T23:38:54.754Z,100355.59
2018-12-23T23:41:26.058Z,100355.98
2018-12-23T23:43:57.365Z,100352.92
2018-12-23T23:46:28.674Z,100350.72
2018-12-23T23:49:00.019Z,100350.78
2018-12-23T23:51:31.383Z,100348.97
2018-12-23T23:54:02.772Z,100357.34
2018-12-23T23:56:34.068Z,100342.84
2018-12-23T23:59:05.462Z,100343.77
